sensor_id;sensor_type;location;lat;lon;timestamp;P1;durP1;ratioP1;P2;durP2;ratioP2
13222;SDS011;6676;45.192;5.722;2022-12-05T00:02:14;30.80;;;20.92;;
13222;SDS011;6676;45.192;5.722;2022-12-05T00:05:06;30.15;;;20.75;;
13222;SDS011;6676;45.192;5.722;2022-12-05T00:07:59;30.30;;;21.10;;
13222;SDS011;6676;45.192;5.722;2022-12-05T00:10:50;30.25;;;20.77;;
13222;SDS011;6676;45.192;5.722;2022-12-05T00:13:43;27.85;;;19.82;;
13222;SDS011;6676;45.192;5.722;2022-12-05T00:16:36;31.87;;;21.42;;
13222;SDS011;6676;45.192;5.722;2022-12-05T00:19:29;32.05;;;21.70;;
13222;SDS011;6676;45.192;5.722;2022-12-05T00:22:21;34.88;;;22.25;;
13222;SDS011;6676;45.192;5.722;2022-12-05T00:25:14;31.23;;;20.92;;
13222;SDS011;6676;45.192;5.722;2022-12-05T00:28:05;30.88;;;21.60;;
13222;SDS011;6676;45.192;5.722;2022-12-05T00:30:59;33.00;;;21.65;;
13222;SDS011;6676;45.192;5.722;2022-12-05T00:33:52;31.02;;;20.55;;
13222;SDS011;6676;45.192;5.722;2022-12-05T00:36:46;30.35;;;21.10;;
13222;SDS011;6676;45.192;5.722;2022-12-05T00:39:38;30.75;;;20.75;;
13222;SDS011;6676;45.192;5.722;2022-12-05T00:42:30;29.60;;;20.77;;
13222;SDS011;6676;45.192;5.722;2022-12-05T00:45:13;31.85;;;21.52;;
13222;SDS011;6676;45.192;5.722;2022-12-05T00:48:05;32.83;;;20.48;;
13222;SDS011;6676;45.192;5.722;2022-12-05T00:51:00;32.45;;;21.15;;
13222;SDS011;6676;45.192;5.722;2022-12-05T00:53:53;30.72;;;20.37;;
13222;SDS011;6676;45.192;5.722;2022-12-05T00:56:46;33.53;;;21.23;;
13222;SDS011;6676;45.192;5.722;2022-12-05T00:59:39;34.38;;;20.95;;
13222;SDS011;6676;45.192;5.722;2022-12-05T01:02:30;34.03;;;21.42;;
13222;SDS011;6676;45.192;5.722;2022-12-05T01:05:21;35.35;;;22.58;;
13222;SDS011;6676;45.192;5.722;2022-12-05T01:08:13;35.52;;;21.27;;
13222;SDS011;6676;45.192;5.722;2022-12-05T01:11:06;36.05;;;22.93;;
13222;SDS011;6676;45.192;5.722;2022-12-05T01:13:58;37.15;;;22.07;;
13222;SDS011;6676;45.192;5.722;2022-12-05T01:16:50;36.95;;;22.77;;
13222;SDS011;6676;45.192;5.722;2022-12-05T01:19:42;38.53;;;22.20;;
13222;SDS011;6676;45.192;5.722;2022-12-05T01:22:34;39.42;;;23.47;;
13222;SDS011;6676;45.192;5.722;2022-12-05T01:25:26;30.92;;;19.77;;
13222;SDS011;6676;45.192;5.722;2022-12-05T01:28:17;34.20;;;21.27;;
13222;SDS011;6676;45.192;5.722;2022-12-05T01:31:11;32.58;;;20.15;;
13222;SDS011;6676;45.192;5.722;2022-12-05T01:34:04;32.23;;;20.25;;
13222;SDS011;6676;45.192;5.722;2022-12-05T01:36:58;32.80;;;19.37;;
13222;SDS011;6676;45.192;5.722;2022-12-05T01:39:50;33.23;;;19.57;;
13222;SDS011;6676;45.192;5.722;2022-12-05T01:42:42;32.67;;;18.85;;
13222;SDS011;6676;45.192;5.722;2022-12-05T01:45:34;31.60;;;19.45;;
13222;SDS011;6676;45.192;5.722;2022-12-05T01:48:30;34.13;;;19.48;;
13222;SDS011;6676;45.192;5.722;2022-12-05T01:51:24;31.10;;;18.75;;
13222;SDS011;6676;45.192;5.722;2022-12-05T01:54:16;29.82;;;18.55;;
13222;SDS011;6676;45.192;5.722;2022-12-05T01:57:11;30.15;;;18.55;;
13222;SDS011;6676;45.192;5.722;2022-12-05T02:00:07;32.70;;;18.80;;
13222;SDS011;6676;45.192;5.722;2022-12-05T02:03:00;30.68;;;18.02;;
13222;SDS011;6676;45.192;5.722;2022-12-05T02:05:55;30.17;;;17.45;;
13222;SDS011;6676;45.192;5.722;2022-12-05T02:08:47;31.20;;;19.02;;
13222;SDS011;6676;45.192;5.722;2022-12-05T02:11:43;27.95;;;17.27;;
13222;SDS011;6676;45.192;5.722;2022-12-05T02:14:38;30.17;;;17.40;;
13222;SDS011;6676;45.192;5.722;2022-12-05T02:17:20;32.45;;;18.30;;
13222;SDS011;6676;45.192;5.722;2022-12-05T02:20:17;28.42;;;16.45;;
13222;SDS011;6676;45.192;5.722;2022-12-05T02:23:20;27.60;;;16.80;;
13222;SDS011;6676;45.192;5.722;2022-12-05T02:26:37;30.08;;;16.45;;
13222;SDS011;6676;45.192;5.722;2022-12-05T02:29:46;26.90;;;15.90;;
13222;SDS011;6676;45.192;5.722;2022-12-05T02:33:03;28.20;;;15.88;;
13222;SDS011;6676;45.192;5.722;2022-12-05T02:35:59;26.95;;;16.70;;
13222;SDS011;6676;45.192;5.722;2022-12-05T02:38:53;28.27;;;16.30;;
13222;SDS011;6676;45.192;5.722;2022-12-05T02:41:48;28.60;;;16.05;;
13222;SDS011;6676;45.192;5.722;2022-12-05T02:44:43;29.90;;;16.00;;
13222;SDS011;6676;45.192;5.722;2022-12-05T02:47:38;28.60;;;16.55;;
13222;SDS011;6676;45.192;5.722;2022-12-05T02:50:33;28.17;;;15.15;;
13222;SDS011;6676;45.192;5.722;2022-12-05T02:53:26;30.90;;;16.42;;
13222;SDS011;6676;45.192;5.722;2022-12-05T02:56:20;28.92;;;16.97;;
13222;SDS011;6676;45.192;5.722;2022-12-05T02:59:12;27.87;;;15.90;;
13222;SDS011;6676;45.192;5.722;2022-12-05T03:02:06;27.87;;;16.15;;
13222;SDS011;6676;45.192;5.722;2022-12-05T03:05:01;30.12;;;16.05;;
13222;SDS011;6676;45.192;5.722;2022-12-05T03:07:56;27.73;;;16.23;;
13222;SDS011;6676;45.192;5.722;2022-12-05T03:10:49;29.40;;;15.45;;
13222;SDS011;6676;45.192;5.722;2022-12-05T03:13:47;26.82;;;16.40;;
13222;SDS011;6676;45.192;5.722;2022-12-05T03:16:42;28.10;;;15.38;;
13222;SDS011;6676;45.192;5.722;2022-12-05T03:19:39;26.27;;;14.47;;
13222;SDS011;6676;45.192;5.722;2022-12-05T03:22:34;25.70;;;15.45;;
13222;SDS011;6676;45.192;5.722;2022-12-05T03:25:29;22.52;;;13.55;;
13222;SDS011;6676;45.192;5.722;2022-12-05T03:28:23;22.55;;;13.38;;
13222;SDS011;6676;45.192;5.722;2022-12-05T03:31:22;19.85;;;11.95;;
13222;SDS011;6676;45.192;5.722;2022-12-05T03:34:16;19.52;;;12.20;;
13222;SDS011;6676;45.192;5.722;2022-12-05T03:37:17;17.45;;;11.08;;
13222;SDS011;6676;45.192;5.722;2022-12-05T03:40:07;16.70;;;11.10;;
13222;SDS011;6676;45.192;5.722;2022-12-05T03:43:05;16.70;;;11.10;;
13222;SDS011;6676;45.192;5.722;2022-12-05T03:46:02;15.05;;;10.28;;
13222;SDS011;6676;45.192;5.722;2022-12-05T03:48:55;16.35;;;10.78;;
13222;SDS011;6676;45.192;5.722;2022-12-05T03:51:51;14.98;;;9.60;;
13222;SDS011;6676;45.192;5.722;2022-12-05T03:54:33;14.33;;;9.15;;
13222;SDS011;6676;45.192;5.722;2022-12-05T03:57:27;13.85;;;9.03;;
13222;SDS011;6676;45.192;5.722;2022-12-05T04:00:22;13.83;;;9.85;;
13222;SDS011;6676;45.192;5.722;2022-12-05T04:03:15;13.50;;;8.70;;
13222;SDS011;6676;45.192;5.722;2022-12-05T04:06:11;12.63;;;8.75;;
13222;SDS011;6676;45.192;5.722;2022-12-05T04:09:08;13.55;;;8.18;;
13222;SDS011;6676;45.192;5.722;2022-12-05T04:12:02;10.10;;;7.22;;
13222;SDS011;6676;45.192;5.722;2022-12-05T04:14:57;8.30;;;6.17;;
13222;SDS011;6676;45.192;5.722;2022-12-05T04:17:52;6.95;;;5.62;;
13222;SDS011;6676;45.192;5.722;2022-12-05T04:20:45;8.55;;;6.58;;
13222;SDS011;6676;45.192;5.722;2022-12-05T04:23:56;8.68;;;6.10;;
13222;SDS011;6676;45.192;5.722;2022-12-05T04:27:14;9.15;;;6.45;;
13222;SDS011;6676;45.192;5.722;2022-12-05T04:30:12;8.45;;;6.47;;
13222;SDS011;6676;45.192;5.722;2022-12-05T04:33:07;9.10;;;6.55;;
13222;SDS011;6676;45.192;5.722;2022-12-05T04:36:03;9.53;;;6.60;;
13222;SDS011;6676;45.192;5.722;2022-12-05T04:38:57;9.63;;;6.90;;
13222;SDS011;6676;45.192;5.722;2022-12-05T04:41:45;10.90;;;7.87;;
13222;SDS011;6676;45.192;5.722;2022-12-05T04:44:40;12.18;;;8.00;;
13222;SDS011;6676;45.192;5.722;2022-12-05T04:47:36;12.37;;;7.60;;
13222;SDS011;6676;45.192;5.722;2022-12-05T04:50:33;10.68;;;8.38;;
13222;SDS011;6676;45.192;5.722;2022-12-05T04:53:29;11.53;;;7.53;;
13222;SDS011;6676;45.192;5.722;2022-12-05T04:56:23;10.35;;;7.75;;
13222;SDS011;6676;45.192;5.722;2022-12-05T04:59:15;11.18;;;7.55;;
13222;SDS011;6676;45.192;5.722;2022-12-05T05:02:07;9.90;;;7.03;;
13222;SDS011;6676;45.192;5.722;2022-12-05T05:05:00;10.93;;;8.23;;
13222;SDS011;6676;45.192;5.722;2022-12-05T05:07:58;11.68;;;7.65;;
13222;SDS011;6676;45.192;5.722;2022-12-05T05:10:53;10.40;;;6.70;;
13222;SDS011;6676;45.192;5.722;2022-12-05T05:13:48;8.40;;;6.10;;
13222;SDS011;6676;45.192;5.722;2022-12-05T05:16:40;8.00;;;5.90;;
13222;SDS011;6676;45.192;5.722;2022-12-05T05:19:33;7.25;;;5.67;;
13222;SDS011;6676;45.192;5.722;2022-12-05T05:22:24;7.92;;;5.72;;
13222;SDS011;6676;45.192;5.722;2022-12-05T05:25:16;6.03;;;4.67;;
13222;SDS011;6676;45.192;5.722;2022-12-05T05:28:08;6.83;;;5.05;;
13222;SDS011;6676;45.192;5.722;2022-12-05T05:31:01;7.70;;;5.28;;
13222;SDS011;6676;45.192;5.722;2022-12-05T05:33:54;10.20;;;5.17;;
13222;SDS011;6676;45.192;5.722;2022-12-05T05:36:49;6.10;;;4.50;;
13222;SDS011;6676;45.192;5.722;2022-12-05T05:39:41;8.65;;;4.70;;
13222;SDS011;6676;45.192;5.722;2022-12-05T05:42:34;6.45;;;4.60;;
13222;SDS011;6676;45.192;5.722;2022-12-05T05:45:26;5.45;;;4.20;;
13222;SDS011;6676;45.192;5.722;2022-12-05T05:48:17;5.95;;;4.20;;
13222;SDS011;6676;45.192;5.722;2022-12-05T05:51:09;5.65;;;3.80;;
13222;SDS011;6676;45.192;5.722;2022-12-05T05:54:01;4.67;;;3.47;;
13222;SDS011;6676;45.192;5.722;2022-12-05T05:56:53;4.28;;;3.25;;
13222;SDS011;6676;45.192;5.722;2022-12-05T05:59:45;4.08;;;3.08;;
13222;SDS011;6676;45.192;5.722;2022-12-05T06:02:37;4.72;;;2.98;;
13222;SDS011;6676;45.192;5.722;2022-12-05T06:05:28;4.85;;;3.65;;
13222;SDS011;6676;45.192;5.722;2022-12-05T06:08:20;3.58;;;2.80;;
13222;SDS011;6676;45.192;5.722;2022-12-05T06:11:04;3.55;;;2.40;;
13222;SDS011;6676;45.192;5.722;2022-12-05T06:13:58;3.42;;;2.85;;
13222;SDS011;6676;45.192;5.722;2022-12-05T06:16:50;3.50;;;2.50;;
13222;SDS011;6676;45.192;5.722;2022-12-05T06:19:41;2.55;;;1.98;;
13222;SDS011;6676;45.192;5.722;2022-12-05T06:22:36;2.40;;;2.05;;
13222;SDS011;6676;45.192;5.722;2022-12-05T06:25:28;3.40;;;2.60;;
13222;SDS011;6676;45.192;5.722;2022-12-05T06:28:22;2.80;;;2.20;;
13222;SDS011;6676;45.192;5.722;2022-12-05T06:31:14;3.22;;;2.20;;
13222;SDS011;6676;45.192;5.722;2022-12-05T06:34:08;3.83;;;2.40;;
13222;SDS011;6676;45.192;5.722;2022-12-05T06:37:00;3.83;;;3.00;;
13222;SDS011;6676;45.192;5.722;2022-12-05T06:39:51;4.17;;;2.20;;
13222;SDS011;6676;45.192;5.722;2022-12-05T06:42:43;3.17;;;2.15;;
13222;SDS011;6676;45.192;5.722;2022-12-05T06:45:36;3.55;;;2.42;;
13222;SDS011;6676;45.192;5.722;2022-12-05T06:48:28;4.45;;;3.05;;
13222;SDS011;6676;45.192;5.722;2022-12-05T06:51:27;4.80;;;2.67;;
13222;SDS011;6676;45.192;5.722;2022-12-05T06:54:39;4.20;;;2.98;;
13222;SDS011;6676;45.192;5.722;2022-12-05T06:57:30;4.12;;;2.77;;
13222;SDS011;6676;45.192;5.722;2022-12-05T07:00:22;7.00;;;2.60;;
13222;SDS011;6676;45.192;5.722;2022-12-05T07:03:38;3.90;;;2.87;;
13222;SDS011;6676;45.192;5.722;2022-12-05T07:06:32;6.03;;;3.40;;
13222;SDS011;6676;45.192;5.722;2022-12-05T07:09:24;6.35;;;3.40;;
13222;SDS011;6676;45.192;5.722;2022-12-05T07:12:38;5.28;;;3.58;;
13222;SDS011;6676;45.192;5.722;2022-12-05T07:15:30;4.95;;;3.50;;
13222;SDS011;6676;45.192;5.722;2022-12-05T07:18:22;6.78;;;4.78;;
13222;SDS011;6676;45.192;5.722;2022-12-05T07:21:13;7.37;;;5.15;;
13222;SDS011;6676;45.192;5.722;2022-12-05T07:24:06;7.17;;;5.30;;
13222;SDS011;6676;45.192;5.722;2022-12-05T07:26:57;7.50;;;5.33;;
13222;SDS011;6676;45.192;5.722;2022-12-05T07:29:49;7.42;;;5.53;;
13222;SDS011;6676;45.192;5.722;2022-12-05T07:32:41;7.37;;;5.10;;
13222;SDS011;6676;45.192;5.722;2022-12-05T07:35:33;7.60;;;5.67;;
13222;SDS011;6676;45.192;5.722;2022-12-05T07:38:27;7.47;;;5.28;;
13222;SDS011;6676;45.192;5.722;2022-12-05T07:41:20;7.30;;;5.70;;
13222;SDS011;6676;45.192;5.722;2022-12-05T07:44:24;8.08;;;6.05;;
13222;SDS011;6676;45.192;5.722;2022-12-05T07:47:16;6.70;;;5.70;;
13222;SDS011;6676;45.192;5.722;2022-12-05T07:50:14;8.10;;;6.05;;
13222;SDS011;6676;45.192;5.722;2022-12-05T07:53:06;5.72;;;4.25;;
13222;SDS011;6676;45.192;5.722;2022-12-05T07:56:05;6.53;;;4.40;;
13222;SDS011;6676;45.192;5.722;2022-12-05T07:59:19;6.50;;;4.08;;
13222;SDS011;6676;45.192;5.722;2022-12-05T08:02:12;7.17;;;5.33;;
13222;SDS011;6676;45.192;5.722;2022-12-05T08:05:12;6.53;;;4.35;;
13222;SDS011;6676;45.192;5.722;2022-12-05T08:10:44;6.75;;;4.42;;
13222;SDS011;6676;45.192;5.722;2022-12-05T08:13:42;6.45;;;5.08;;
13222;SDS011;6676;45.192;5.722;2022-12-05T08:16:48;9.05;;;6.00;;
13222;SDS011;6676;45.192;5.722;2022-12-05T08:22:23;7.80;;;5.62;;
13222;SDS011;6676;45.192;5.722;2022-12-05T08:25:14;8.38;;;6.25;;
13222;SDS011;6676;45.192;5.722;2022-12-05T08:28:06;9.35;;;6.78;;
13222;SDS011;6676;45.192;5.722;2022-12-05T08:31:03;10.75;;;8.40;;
13222;SDS011;6676;45.192;5.722;2022-12-05T08:34:02;11.90;;;9.95;;
13222;SDS011;6676;45.192;5.722;2022-12-05T08:37:14;12.70;;;10.20;;
13222;SDS011;6676;45.192;5.722;2022-12-05T08:40:07;12.63;;;9.70;;
13222;SDS011;6676;45.192;5.722;2022-12-05T08:43:00;9.53;;;7.47;;
13222;SDS011;6676;45.192;5.722;2022-12-05T08:45:52;9.45;;;7.85;;
13222;SDS011;6676;45.192;5.722;2022-12-05T08:48:44;12.93;;;9.35;;
13222;SDS011;6676;45.192;5.722;2022-12-05T08:51:36;11.00;;;8.83;;
13222;SDS011;6676;45.192;5.722;2022-12-05T08:54:29;12.85;;;8.95;;
13222;SDS011;6676;45.192;5.722;2022-12-05T08:57:20;10.05;;;7.03;;
13222;SDS011;6676;45.192;5.722;2022-12-05T09:00:13;9.85;;;7.65;;
13222;SDS011;6676;45.192;5.722;2022-12-05T09:03:07;11.38;;;8.20;;
13222;SDS011;6676;45.192;5.722;2022-12-05T09:06:05;9.78;;;7.35;;
13222;SDS011;6676;45.192;5.722;2022-12-05T09:08:59;10.30;;;7.92;;
13222;SDS011;6676;45.192;5.722;2022-12-05T09:11:53;10.75;;;7.35;;
13222;SDS011;6676;45.192;5.722;2022-12-05T09:14:47;10.65;;;7.00;;
13222;SDS011;6676;45.192;5.722;2022-12-05T09:17:38;9.20;;;6.83;;
13222;SDS011;6676;45.192;5.722;2022-12-05T09:20:40;9.35;;;7.35;;
13222;SDS011;6676;45.192;5.722;2022-12-05T09:23:46;8.13;;;6.42;;
13222;SDS011;6676;45.192;5.722;2022-12-05T09:26:42;7.80;;;5.37;;
13222;SDS011;6676;45.192;5.722;2022-12-05T09:29:33;7.87;;;5.30;;
13222;SDS011;6676;45.192;5.722;2022-12-05T09:32:26;7.78;;;5.83;;
13222;SDS011;6676;45.192;5.722;2022-12-05T09:35:17;8.53;;;5.72;;
13222;SDS011;6676;45.192;5.722;2022-12-05T09:38:09;8.75;;;5.58;;
13222;SDS011;6676;45.192;5.722;2022-12-05T09:41:03;7.90;;;5.97;;
13222;SDS011;6676;45.192;5.722;2022-12-05T09:44:01;10.25;;;6.35;;
13222;SDS011;6676;45.192;5.722;2022-12-05T09:47:02;13.18;;;8.30;;
13222;SDS011;6676;45.192;5.722;2022-12-05T09:49:57;11.78;;;7.72;;
13222;SDS011;6676;45.192;5.722;2022-12-05T09:52:40;12.10;;;8.93;;
13222;SDS011;6676;45.192;5.722;2022-12-05T09:55:45;10.50;;;8.03;;
13222;SDS011;6676;45.192;5.722;2022-12-05T09:58:40;12.03;;;8.20;;
13222;SDS011;6676;45.192;5.722;2022-12-05T10:01:34;14.45;;;9.28;;
13222;SDS011;6676;45.192;5.722;2022-12-05T10:04:38;12.60;;;9.08;;
13222;SDS011;6676;45.192;5.722;2022-12-05T10:07:40;14.98;;;9.55;;
13222;SDS011;6676;45.192;5.722;2022-12-05T10:10:39;15.68;;;10.18;;
13222;SDS011;6676;45.192;5.722;2022-12-05T10:13:23;15.10;;;11.63;;
13222;SDS011;6676;45.192;5.722;2022-12-05T10:16:24;12.53;;;10.50;;
13222;SDS011;6676;45.192;5.722;2022-12-05T10:19:18;14.80;;;11.55;;
13222;SDS011;6676;45.192;5.722;2022-12-05T10:22:15;17.20;;;11.80;;
13222;SDS011;6676;45.192;5.722;2022-12-05T10:25:10;15.65;;;11.63;;
13222;SDS011;6676;45.192;5.722;2022-12-05T10:28:08;15.00;;;10.68;;
13222;SDS011;6676;45.192;5.722;2022-12-05T10:31:03;16.10;;;11.45;;
13222;SDS011;6676;45.192;5.722;2022-12-05T10:33:57;14.35;;;11.10;;
13222;SDS011;6676;45.192;5.722;2022-12-05T10:36:57;15.88;;;11.88;;
13222;SDS011;6676;45.192;5.722;2022-12-05T10:39:52;17.73;;;10.80;;
13222;SDS011;6676;45.192;5.722;2022-12-05T10:42:33;13.22;;;10.25;;
13222;SDS011;6676;45.192;5.722;2022-12-05T10:45:25;12.43;;;9.65;;
13222;SDS011;6676;45.192;5.722;2022-12-05T10:48:17;12.03;;;9.25;;
13222;SDS011;6676;45.192;5.722;2022-12-05T10:51:12;13.08;;;9.60;;
13222;SDS011;6676;45.192;5.722;2022-12-05T10:54:08;13.25;;;10.13;;
13222;SDS011;6676;45.192;5.722;2022-12-05T10:57:09;12.05;;;9.78;;
13222;SDS011;6676;45.192;5.722;2022-12-05T11:00:11;12.75;;;9.70;;
13222;SDS011;6676;45.192;5.722;2022-12-05T11:03:14;13.80;;;10.23;;
13222;SDS011;6676;45.192;5.722;2022-12-05T11:06:14;11.90;;;9.80;;
13222;SDS011;6676;45.192;5.722;2022-12-05T11:09:13;13.05;;;9.43;;
13222;SDS011;6676;45.192;5.722;2022-12-05T11:12:14;12.13;;;9.20;;
13222;SDS011;6676;45.192;5.722;2022-12-05T11:15:18;14.23;;;9.90;;
13222;SDS011;6676;45.192;5.722;2022-12-05T11:18:18;13.32;;;8.68;;
13222;SDS011;6676;45.192;5.722;2022-12-05T11:21:15;12.88;;;9.78;;
13222;SDS011;6676;45.192;5.722;2022-12-05T11:24:18;13.25;;;9.58;;
13222;SDS011;6676;45.192;5.722;2022-12-05T11:27:20;12.25;;;9.10;;
13222;SDS011;6676;45.192;5.722;2022-12-05T11:30:18;13.40;;;9.05;;
13222;SDS011;6676;45.192;5.722;2022-12-05T11:33:19;12.68;;;9.38;;
13222;SDS011;6676;45.192;5.722;2022-12-05T11:36:13;9.33;;;7.35;;
13222;SDS011;6676;45.192;5.722;2022-12-05T11:39:09;11.85;;;7.35;;
13222;SDS011;6676;45.192;5.722;2022-12-05T11:45:13;12.70;;;9.20;;
13222;SDS011;6676;45.192;5.722;2022-12-05T11:48:19;10.65;;;8.35;;
13222;SDS011;6676;45.192;5.722;2022-12-05T11:51:27;11.48;;;7.90;;
13222;SDS011;6676;45.192;5.722;2022-12-05T11:54:34;10.48;;;8.48;;
13222;SDS011;6676;45.192;5.722;2022-12-05T11:57:49;12.30;;;9.45;;
13222;SDS011;6676;45.192;5.722;2022-12-05T12:01:04;13.55;;;9.58;;
13222;SDS011;6676;45.192;5.722;2022-12-05T12:04:07;12.85;;;10.32;;
13222;SDS011;6676;45.192;5.722;2022-12-05T12:07:32;13.45;;;10.00;;
13222;SDS011;6676;45.192;5.722;2022-12-05T12:10:39;12.45;;;9.60;;
13222;SDS011;6676;45.192;5.722;2022-12-05T12:13:38;12.05;;;9.00;;
13222;SDS011;6676;45.192;5.722;2022-12-05T12:19:36;10.28;;;8.08;;
13222;SDS011;6676;45.192;5.722;2022-12-05T12:22:44;9.00;;;7.42;;
13222;SDS011;6676;45.192;5.722;2022-12-05T12:25:48;7.70;;;6.28;;
13222;SDS011;6676;45.192;5.722;2022-12-05T12:28:42;7.75;;;5.97;;
13222;SDS011;6676;45.192;5.722;2022-12-05T12:31:40;8.20;;;7.12;;
13222;SDS011;6676;45.192;5.722;2022-12-05T12:34:44;12.18;;;8.50;;
13222;SDS011;6676;45.192;5.722;2022-12-05T12:38:10;13.65;;;9.13;;
13222;SDS011;6676;45.192;5.722;2022-12-05T12:41:10;10.48;;;8.53;;
13222;SDS011;6676;45.192;5.722;2022-12-05T12:44:06;12.30;;;8.95;;
13222;SDS011;6676;45.192;5.722;2022-12-05T12:49:45;16.50;;;10.63;;
13222;SDS011;6676;45.192;5.722;2022-12-05T12:52:46;13.00;;;10.32;;
13222;SDS011;6676;45.192;5.722;2022-12-05T12:55:56;14.15;;;10.68;;
13222;SDS011;6676;45.192;5.722;2022-12-05T12:58:51;14.50;;;11.10;;
13222;SDS011;6676;45.192;5.722;2022-12-05T13:01:46;15.00;;;11.00;;
13222;SDS011;6676;45.192;5.722;2022-12-05T13:04:42;15.23;;;10.72;;
13222;SDS011;6676;45.192;5.722;2022-12-05T13:07:39;16.12;;;10.68;;
13222;SDS011;6676;45.192;5.722;2022-12-05T13:10:34;13.80;;;10.00;;
13222;SDS011;6676;45.192;5.722;2022-12-05T13:13:30;14.87;;;10.18;;
13222;SDS011;6676;45.192;5.722;2022-12-05T13:16:25;13.05;;;9.88;;
13222;SDS011;6676;45.192;5.722;2022-12-05T13:19:24;14.33;;;9.48;;
13222;SDS011;6676;45.192;5.722;2022-12-05T13:22:18;15.20;;;9.50;;
13222;SDS011;6676;45.192;5.722;2022-12-05T13:25:13;14.45;;;9.13;;
13222;SDS011;6676;45.192;5.722;2022-12-05T13:28:06;12.20;;;9.60;;
13222;SDS011;6676;45.192;5.722;2022-12-05T13:31:00;14.78;;;10.43;;
13222;SDS011;6676;45.192;5.722;2022-12-05T13:33:53;12.58;;;9.98;;
13222;SDS011;6676;45.192;5.722;2022-12-05T13:36:45;13.72;;;10.65;;
13222;SDS011;6676;45.192;5.722;2022-12-05T13:39:55;12.00;;;9.78;;
13222;SDS011;6676;45.192;5.722;2022-12-05T13:43:05;12.68;;;9.70;;
13222;SDS011;6676;45.192;5.722;2022-12-05T13:45:59;12.95;;;9.53;;
13222;SDS011;6676;45.192;5.722;2022-12-05T13:51:36;13.22;;;9.98;;
13222;SDS011;6676;45.192;5.722;2022-12-05T13:54:31;12.53;;;9.58;;
13222;SDS011;6676;45.192;5.722;2022-12-05T13:57:47;13.78;;;9.63;;
13222;SDS011;6676;45.192;5.722;2022-12-05T14:00:40;13.00;;;9.85;;
13222;SDS011;6676;45.192;5.722;2022-12-05T14:06:54;13.10;;;10.00;;
13222;SDS011;6676;45.192;5.722;2022-12-05T14:09:50;13.68;;;10.28;;
13222;SDS011;6676;45.192;5.722;2022-12-05T14:12:44;14.45;;;10.15;;
13222;SDS011;6676;45.192;5.722;2022-12-05T14:19:02;12.33;;;9.48;;
13222;SDS011;6676;45.192;5.722;2022-12-05T14:21:59;13.38;;;9.68;;
13222;SDS011;6676;45.192;5.722;2022-12-05T14:24:56;12.85;;;9.43;;
13222;SDS011;6676;45.192;5.722;2022-12-05T14:27:52;13.80;;;9.73;;
13222;SDS011;6676;45.192;5.722;2022-12-05T14:30:49;11.95;;;9.28;;
13222;SDS011;6676;45.192;5.722;2022-12-05T14:33:46;14.45;;;9.38;;
13222;SDS011;6676;45.192;5.722;2022-12-05T14:36:54;11.70;;;9.13;;
13222;SDS011;6676;45.192;5.722;2022-12-05T14:39:51;14.10;;;9.20;;
13222;SDS011;6676;45.192;5.722;2022-12-05T14:42:50;12.50;;;9.23;;
13222;SDS011;6676;45.192;5.722;2022-12-05T14:45:52;12.58;;;8.73;;
13222;SDS011;6676;45.192;5.722;2022-12-05T14:48:45;12.18;;;9.00;;
13222;SDS011;6676;45.192;5.722;2022-12-05T14:51:53;12.15;;;8.30;;
13222;SDS011;6676;45.192;5.722;2022-12-05T14:54:40;13.95;;;8.68;;
13222;SDS011;6676;45.192;5.722;2022-12-05T14:57:43;13.43;;;8.53;;
13222;SDS011;6676;45.192;5.722;2022-12-05T15:00:17;11.95;;;8.50;;
13222;SDS011;6676;45.192;5.722;2022-12-05T15:03:13;12.70;;;9.03;;
13222;SDS011;6676;45.192;5.722;2022-12-05T15:05:58;14.80;;;10.82;;
13222;SDS011;6676;45.192;5.722;2022-12-05T15:08:54;12.80;;;9.85;;
13222;SDS011;6676;45.192;5.722;2022-12-05T15:11:48;13.25;;;9.85;;
13222;SDS011;6676;45.192;5.722;2022-12-05T15:14:44;13.43;;;9.05;;
13222;SDS011;6676;45.192;5.722;2022-12-05T15:17:47;12.93;;;9.20;;
13222;SDS011;6676;45.192;5.722;2022-12-05T15:20:43;16.42;;;9.08;;
13222;SDS011;6676;45.192;5.722;2022-12-05T15:23:42;14.47;;;9.75;;
13222;SDS011;6676;45.192;5.722;2022-12-05T15:26:36;13.98;;;9.05;;
13222;SDS011;6676;45.192;5.722;2022-12-05T15:29:30;11.90;;;8.53;;
13222;SDS011;6676;45.192;5.722;2022-12-05T15:32:24;14.45;;;10.10;;
13222;SDS011;6676;45.192;5.722;2022-12-05T15:38:39;15.48;;;9.85;;
13222;SDS011;6676;45.192;5.722;2022-12-05T15:41:33;17.80;;;10.23;;
13222;SDS011;6676;45.192;5.722;2022-12-05T15:44:29;12.82;;;9.18;;
13222;SDS011;6676;45.192;5.722;2022-12-05T15:47:23;13.40;;;9.60;;
13222;SDS011;6676;45.192;5.722;2022-12-05T15:50:16;14.15;;;10.55;;
13222;SDS011;6676;45.192;5.722;2022-12-05T15:53:12;14.45;;;10.40;;
13222;SDS011;6676;45.192;5.722;2022-12-05T15:55:54;16.02;;;9.98;;
13222;SDS011;6676;45.192;5.722;2022-12-05T15:58:49;13.78;;;10.13;;
13222;SDS011;6676;45.192;5.722;2022-12-05T16:01:44;14.80;;;10.43;;
13222;SDS011;6676;45.192;5.722;2022-12-05T16:04:41;16.02;;;9.30;;
13222;SDS011;6676;45.192;5.722;2022-12-05T16:07:36;13.30;;;9.65;;
13222;SDS011;6676;45.192;5.722;2022-12-05T16:10:28;16.12;;;10.90;;
13222;SDS011;6676;45.192;5.722;2022-12-05T16:13:22;14.95;;;9.40;;
13222;SDS011;6676;45.192;5.722;2022-12-05T16:16:16;16.90;;;11.10;;
13222;SDS011;6676;45.192;5.722;2022-12-05T16:19:13;15.48;;;10.40;;
13222;SDS011;6676;45.192;5.722;2022-12-05T16:22:07;16.35;;;10.82;;
13222;SDS011;6676;45.192;5.722;2022-12-05T16:25:11;13.70;;;10.08;;
13222;SDS011;6676;45.192;5.722;2022-12-05T16:28:14;16.35;;;10.40;;
13222;SDS011;6676;45.192;5.722;2022-12-05T16:31:12;15.15;;;10.58;;
13222;SDS011;6676;45.192;5.722;2022-12-05T16:34:06;18.32;;;10.80;;
13222;SDS011;6676;45.192;5.722;2022-12-05T16:37:03;15.00;;;10.68;;
13222;SDS011;6676;45.192;5.722;2022-12-05T16:39:55;12.78;;;9.63;;
13222;SDS011;6676;45.192;5.722;2022-12-05T16:42:48;15.75;;;10.93;;
13222;SDS011;6676;45.192;5.722;2022-12-05T16:45:53;15.20;;;10.25;;
13222;SDS011;6676;45.192;5.722;2022-12-05T16:49:09;17.73;;;11.08;;
13222;SDS011;6676;45.192;5.722;2022-12-05T16:51:43;16.23;;;11.20;;
13222;SDS011;6676;45.192;5.722;2022-12-05T16:54:37;14.18;;;10.08;;
13222;SDS011;6676;45.192;5.722;2022-12-05T16:57:30;15.75;;;10.08;;
13222;SDS011;6676;45.192;5.722;2022-12-05T17:00:22;13.83;;;10.03;;
13222;SDS011;6676;45.192;5.722;2022-12-05T17:03:14;13.75;;;9.85;;
13222;SDS011;6676;45.192;5.722;2022-12-05T17:06:10;15.70;;;9.93;;
13222;SDS011;6676;45.192;5.722;2022-12-05T17:09:02;13.48;;;10.48;;
13222;SDS011;6676;45.192;5.722;2022-12-05T17:11:55;12.80;;;9.68;;
13222;SDS011;6676;45.192;5.722;2022-12-05T17:14:51;14.15;;;10.05;;
13222;SDS011;6676;45.192;5.722;2022-12-05T17:17:43;16.90;;;10.25;;
13222;SDS011;6676;45.192;5.722;2022-12-05T17:20:35;15.98;;;10.65;;
13222;SDS011;6676;45.192;5.722;2022-12-05T17:23:30;14.00;;;10.13;;
13222;SDS011;6676;45.192;5.722;2022-12-05T17:26:16;14.95;;;10.50;;
13222;SDS011;6676;45.192;5.722;2022-12-05T17:29:09;15.55;;;10.90;;
13222;SDS011;6676;45.192;5.722;2022-12-05T17:32:00;13.65;;;10.72;;
13222;SDS011;6676;45.192;5.722;2022-12-05T17:34:52;14.25;;;10.40;;
13222;SDS011;6676;45.192;5.722;2022-12-05T17:37:44;15.28;;;9.93;;
13222;SDS011;6676;45.192;5.722;2022-12-05T17:40:39;14.45;;;10.82;;
13222;SDS011;6676;45.192;5.722;2022-12-05T17:43:30;13.55;;;9.50;;
13222;SDS011;6676;45.192;5.722;2022-12-05T17:46:22;13.83;;;10.25;;
13222;SDS011;6676;45.192;5.722;2022-12-05T17:49:14;12.73;;;10.25;;
13222;SDS011;6676;45.192;5.722;2022-12-05T17:52:08;15.15;;;10.58;;
13222;SDS011;6676;45.192;5.722;2022-12-05T17:55:00;14.55;;;11.00;;
13222;SDS011;6676;45.192;5.722;2022-12-05T17:57:52;16.10;;;11.20;;
13222;SDS011;6676;45.192;5.722;2022-12-05T18:00:44;15.85;;;10.88;;
13222;SDS011;6676;45.192;5.722;2022-12-05T18:03:35;14.93;;;11.57;;